Time;durP1;ratioP1;P1;durP2;ratioP2;P2;SDS_P1;SDS_P2;PMS_P1;PMS_P2;Temp;Humidity;BMP_temperature;BMP_pressure;BME280_temperature;BME280_humidity;BME280_pressure;Samples;Min_cycle;Max_cycle;Signal;HPM_P1;HPM_P2
2023/03/21 00:02:15;;;;;;;60.23;26.50;;;;;;;3.69;76.54;100189.02;1688601;85;21014;-60
2023/03/21 00:04:45;;;;;;;65.90;28.83;;;;;;;3.67;76.63;100182.41;1679558;85;21455;-60
2023/03/21 00:07:16;;;;;;;62.73;28.95;;;;;;;3.67;76.81;100188.33;1687935;83;21030;-59
2023/03/21 00:09:45;;;;;;;64.90;29.70;;;;;;;3.69;76.89;100189.02;1679098;83;21113;-59
2023/03/21 00:12:16;;;;;;;71.33;30.05;;;;;;;3.68;76.82;100185.96;1678745;85;21051;-60
2023/03/21 00:14:46;;;;;;;65.80;30.23;;;;;;;3.64;76.92;100180.52;1678990;85;21047;-63
2023/03/21 00:17:21;;;;;;;64.80;28.62;;;;;;;3.60;77.02;100185.91;1679031;85;21022;-60
2023/03/21 00:19:57;;;;;;;64.42;27.73;;;;;;;3.55;77.13;100179.61;1658662;84;21059;-61
2023/03/21 00:22:35;;;;;;;68.85;28.55;;;;;;;3.52;77.22;100173.66;1678782;85;20987;-61
2023/03/21 00:25:07;;;;;;;65.00;28.98;;;;;;;3.47;77.41;100176.33;1678846;85;21016;-60
2023/03/21 00:27:36;;;;;;;68.72;30.30;;;;;;;3.46;77.65;100174.63;1678914;85;21023;-60
2023/03/21 00:30:09;;;;;;;66.62;28.27;;;;;;;3.46;77.77;100180.05;1675989;84;21047;-61
2023/03/21 00:32:40;;;;;;;61.08;28.15;;;;;;;3.49;77.80;100177.03;1679070;85;21059;-60
2023/03/21 00:35:10;;;;;;;59.55;27.90;;;;;;;3.50;77.84;100171.95;1676843;85;21066;-60
2023/03/21 00:37:42;;;;;;;62.08;28.42;;;;;;;3.48;77.99;100170.41;1675680;84;21529;-60
2023/03/21 00:40:11;;;;;;;62.62;26.45;;;;;;;3.50;78.11;100172.45;1678853;85;21003;-58
2023/03/21 00:42:42;;;;;;;62.60;27.07;;;;;;;3.52;78.18;100172.30;1677056;84;21070;-61
2023/03/21 00:45:11;;;;;;;59.33;27.27;;;;;;;3.52;78.19;100167.73;1678986;85;21063;-59
2023/03/21 00:47:40;;;;;;;66.47;28.55;;;;;;;3.53;78.23;100168.08;1679022;84;21453;-60
2023/03/21 00:50:11;;;;;;;63.73;28.70;;;;;;;3.52;78.36;100160.11;1678899;84;20995;-60
2023/03/21 00:52:41;;;;;;;60.70;28.07;;;;;;;3.54;78.44;100162.16;1678697;85;21086;-60
2023/03/21 00:55:15;;;;;;;62.50;26.85;;;;;;;3.57;78.48;100161.84;1678719;85;21054;-59
2023/03/21 00:57:45;;;;;;;63.28;27.07;;;;;;;3.57;78.50;100156.42;1678842;84;21067;-60
2023/03/21 01:00:17;;;;;;;58.13;26.33;;;;;;;3.55;78.49;100159.30;1677682;85;21058;-60
2023/03/21 01:02:57;;;;;;;55.48;26.10;;;;;;;3.56;78.56;100160.99;1678605;85;21058;-60
2023/03/21 01:08:18;;;;;;;57.70;26.77;;;;;;;3.59;78.86;100153.05;1678914;84;21078;-59
2023/03/21 01:10:51;;;;;;;50.67;24.87;;;;;;;3.62;78.89;100150.02;1678174;85;21491;-60
2023/03/21 01:13:22;;;;;;;53.02;24.98;;;;;;;3.64;79.02;100148.01;1678830;84;21033;-61
2023/03/21 01:15:54;;;;;;;55.35;25.15;;;;;;;3.69;79.23;100147.88;1678708;84;21086;-59
2023/03/21 01:18:26;;;;;;;54.42;24.70;;;;;;;3.74;79.32;100155.02;1678923;84;21540;-59
2023/03/21 01:20:57;;;;;;;46.42;22.70;;;;;;;3.77;79.31;100147.08;1678727;85;21003;-60
2023/03/21 01:23:27;;;;;;;47.67;22.65;;;;;;;3.81;79.40;100145.23;1678947;84;21105;-60
2023/03/21 01:25:57;;;;;;;47.93;23.52;;;;;;;3.86;79.52;100146.11;1657689;85;21082;-60
2023/03/21 01:28:27;;;;;;;51.73;23.67;;;;;;;3.89;79.51;100134.09;1678870;85;21046;-61
2023/03/21 01:30:56;;;;;;;44.75;22.60;;;;;;;3.91;79.60;100137.02;1679022;85;21529;-60
2023/03/21 01:33:25;;;;;;;46.70;22.95;;;;;;;3.94;79.71;100133.14;1679058;84;21035;-59
2023/03/21 01:35:53;;;;;;;45.33;21.87;;;;;;;3.94;79.78;100124.50;1678793;84;21027;-61
2023/03/21 01:38:25;;;;;;;49.73;22.45;;;;;;;3.96;79.75;100121.63;1676210;84;21035;-61
2023/03/21 01:40:54;;;;;;;45.23;22.32;;;;;;;4.00;79.76;100127.92;1678901;85;20999;-60
2023/03/21 01:43:32;;;;;;;47.75;23.98;;;;;;;4.03;79.73;100127.59;1678848;85;21003;-60
2023/03/21 01:46:11;;;;;;;48.70;23.98;;;;;;;4.04;79.73;100122.52;1679033;85;21053;-60
2023/03/21 01:49:04;;;;;;;51.18;24.23;;;;;;;4.06;79.74;100125.06;1638437;86;21086;-60
2023/03/21 01:51:39;;;;;;;48.60;23.62;;;;;;;4.05;79.68;100118.80;1668580;85;21029;-60
2023/03/21 01:54:14;;;;;;;49.77;22.50;;;;;;;4.06;79.66;100116.42;1657884;85;21087;-61
2023/03/21 01:56:45;;;;;;;46.65;22.32;;;;;;;4.08;79.64;100117.61;1678682;84;21054;-60
2023/03/21 01:59:25;;;;;;;50.65;23.18;;;;;;;4.09;79.51;100116.09;1678812;84;21023;-60
2023/03/21 02:02:30;;;;;;;50.12;24.55;;;;;;;4.09;79.33;100111.18;1678469;85;21062;-59
2023/03/21 02:05:04;;;;;;;54.95;26.70;;;;;;;4.07;79.29;100112.70;1677297;85;21066;-61
2023/03/21 02:07:34;;;;;;;55.92;26.33;;;;;;;4.08;79.29;100110.84;1681401;85;21050;-61
2023/03/21 02:10:08;;;;;;;53.98;26.57;;;;;;;4.08;79.23;100106.27;1665951;84;21097;-60
2023/03/21 02:12:39;;;;;;;60.43;28.32;;;;;;;4.06;79.13;100106.94;1700224;84;21045;-61
2023/03/21 02:15:11;;;;;;;57.83;28.27;;;;;;;4.05;79.03;100107.95;1699607;84;21045;-60
2023/03/21 02:17:59;;;;;;;50.88;24.57;;;;;;;4.04;78.94;100108.11;1695459;84;21101;-62
2023/03/21 02:20:59;;;;;;;53.42;26.20;;;;;;;4.00;78.86;100104.87;1696443;83;21085;-60
2023/03/21 02:23:52;;;;;;;47.58;23.98;;;;;;;3.94;78.74;100102.82;1695751;84;21026;-60
2023/03/21 02:26:45;;;;;;;55.73;26.17;;;;;;;3.88;78.76;100095.30;1696656;84;21430;-60
2023/03/21 02:29:51;;;;;;;50.25;24.57;;;;;;;3.81;78.85;100092.39;1681690;83;21835;-60
2023/03/21 02:32:48;;;;;;;46.18;22.93;;;;;;;3.74;78.75;100097.27;1696593;84;21025;-60
2023/03/21 02:35:39;;;;;;;50.28;23.38;;;;;;;3.61;78.67;100103.12;1696461;84;21061;-61
2023/03/21 02:38:48;;;;;;;51.00;23.83;;;;;;;3.48;78.86;100091.87;1694502;83;21026;-60
2023/03/21 02:41:41;;;;;;;50.23;22.25;;;;;;;3.43;79.24;100099.62;1696446;83;21046;-61
2023/03/21 02:44:22;;;;;;;47.88;23.15;;;;;;;3.37;79.47;100091.63;1689129;83;21109;-61
2023/03/21 02:47:07;;;;;;;51.70;24.92;;;;;;;3.36;79.59;100091.29;1696346;84;21424;-60
2023/03/21 02:49:57;;;;;;;53.25;24.30;;;;;;;3.34;79.56;100091.95;1696315;83;21026;-59
2023/03/21 02:52:28;;;;;;;49.00;24.57;;;;;;;3.27;79.58;100086.83;1696300;84;21038;-61
2023/03/21 02:54:59;;;;;;;51.73;23.87;;;;;;;3.22;79.79;100089.13;1695249;83;21030;-60
2023/03/21 02:57:31;;;;;;;51.77;23.90;;;;;;;3.21;79.89;100089.28;1696445;83;21054;-61
2023/03/21 03:00:07;;;;;;;56.98;26.60;;;;;;;3.19;79.97;100086.73;1694573;84;21086;-60
2023/03/21 03:02:40;;;;;;;54.15;25.12;;;;;;;3.14;80.00;100088.56;1695464;84;21014;-60
2023/03/21 03:05:20;;;;;;;56.45;27.90;;;;;;;3.10;80.14;100085.83;1696416;84;21058;-61
2023/03/21 03:08:20;;;;;;;61.25;27.00;;;;;;;3.07;80.14;100094.77;1695368;83;21110;-61
2023/03/21 03:11:17;;;;;;;59.98;27.80;;;;;;;3.01;80.27;100095.39;1686224;84;21039;-61
2023/03/21 03:14:19;;;;;;;59.00;27.00;;;;;;;2.96;80.42;100090.45;1684649;83;21062;-60
2023/03/21 03:17:24;;;;;;;59.15;27.17;;;;;;;2.91;80.54;100088.72;1643882;85;21503;-59
2023/03/21 03:20:01;;;;;;;54.53;25.45;;;;;;;2.86;80.56;100095.95;1688819;83;21055;-60
2023/03/21 03:22:40;;;;;;;62.00;26.93;;;;;;;2.82;80.66;100094.56;1686108;85;21098;-61
2023/03/21 03:25:12;;;;;;;56.75;27.48;;;;;;;2.75;80.71;100092.13;1679153;85;21074;-60
2023/03/21 03:27:43;;;;;;;57.20;27.45;;;;;;;2.74;80.88;100097.70;1686589;83;21059;-61
2023/03/21 03:30:13;;;;;;;58.70;27.22;;;;;;;2.70;80.95;100095.80;1679133;84;21043;-60
2023/03/21 03:32:49;;;;;;;59.05;26.93;;;;;;;2.70;81.05;100095.80;1688932;84;21474;-60
2023/03/21 03:35:21;;;;;;;60.33;26.42;;;;;;;2.70;80.94;100093.59;1678960;84;21030;-59
2023/03/21 03:37:56;;;;;;;58.42;26.75;;;;;;;2.67;80.94;100088.00;1688451;85;21082;-61
2023/03/21 03:40:29;;;;;;;58.42;27.07;;;;;;;2.64;81.02;100085.60;1679064;84;21031;-60
2023/03/21 03:43:14;;;;;;;58.15;27.45;;;;;;;2.58;81.18;100091.59;1687838;85;21066;-61
2023/03/21 03:45:51;;;;;;;63.20;29.15;;;;;;;2.53;81.43;100085.30;1679203;85;21430;-60
2023/03/21 03:48:44;;;;;;;64.60;28.37;;;;;;;2.53;81.65;100088.00;1689006;85;21050;-59
2023/03/21 03:51:23;;;;;;;59.15;27.13;;;;;;;2.53;81.79;100080.39;1678610;85;21023;-61
2023/03/21 03:54:12;;;;;;;58.50;27.58;;;;;;;2.55;81.79;100083.80;1685868;85;21039;-60
2023/03/21 03:56:43;;;;;;;57.98;26.23;;;;;;;2.53;81.74;100080.39;1658507;85;21082;-60
2023/03/21 03:59:20;;;;;;;55.65;26.52;;;;;;;2.51;81.76;100077.84;1688634;85;21101;-61
2023/03/21 04:01:46;;;;;;;55.33;25.92;;;;;;;2.51;81.84;100080.55;1616871;85;21078;-61
2023/03/21 04:04:15;;;;;;;52.50;25.02;;;;;;;2.51;81.90;100068.88;1688672;83;21034;-62
2023/03/21 04:06:50;;;;;;;56.45;26.25;;;;;;;2.50;82.00;100073.44;1679155;84;21015;-61
2023/03/21 04:09:18;;;;;;;52.88;25.77;;;;;;;2.49;82.05;100069.53;1688902;83;21082;-61
2023/03/21 04:11:50;;;;;;;55.73;25.88;;;;;;;2.48;82.10;100063.78;1677909;84;21571;-62
2023/03/21 04:14:20;;;;;;;55.78;25.68;;;;;;;2.48;82.17;100069.19;1678797;85;21115;-61
2023/03/21 04:16:49;;;;;;;56.75;25.72;;;;;;;2.47;82.16;100072.39;1678837;85;21070;-60
2023/03/21 04:19:19;;;;;;;58.05;26.12;;;;;;;2.44;82.11;100067.80;1678788;84;21035;-60
2023/03/21 04:21:49;;;;;;;55.58;25.97;;;;;;;2.42;82.25;100067.95;1678717;85;21622;-61
2023/03/21 04:24:19;;;;;;;50.73;25.23;;;;;;;2.42;82.42;100074.70;1678957;85;21067;-60
2023/03/21 04:26:52;;;;;;;56.48;27.50;;;;;;;2.43;82.70;100080.47;1678910;85;21050;-62
2023/03/21 04:29:23;;;;;;;60.48;29.37;;;;;;;2.45;83.02;100082.52;1675631;84;21110;-61
2023/03/21 04:32:00;;;;;;;60.30;27.85;;;;;;;2.46;83.25;100081.51;1678595;84;21110;-61
2023/03/21 04:34:31;;;;;;;65.85;28.65;;;;;;;2.47;83.35;100085.06;1678961;84;21074;-60
2023/03/21 04:37:09;;;;;;;64.37;28.95;;;;;;;2.49;83.35;100084.41;1678695;84;21070;-60
2023/03/21 04:39:33;;;;;;;65.32;28.42;;;;;;;2.49;83.26;100091.17;1678486;84;21458;-62
2023/03/21 04:42:02;;;;;;;67.53;30.77;;;;;;;2.45;83.26;100083.02;1678727;84;21106;-61
2023/03/21 04:44:32;;;;;;;72.67;32.20;;;;;;;2.44;83.31;100092.98;1678580;84;21055;-59
2023/03/21 04:47:01;;;;;;;75.00;33.85;;;;;;;2.46;83.35;100087.42;1678971;85;21081;-61
2023/03/21 04:49:30;;;;;;;74.60;34.67;;;;;;;2.50;83.41;100092.88;1678903;85;21026;-60
2023/03/21 04:52:02;;;;;;;74.20;34.03;;;;;;;2.52;83.37;100084.10;1678775;84;21447;-59
2023/03/21 04:54:31;;;;;;;80.53;40.52;;;;;;;2.54;83.32;100082.94;1678730;85;21050;-61
2023/03/21 04:57:01;;;;;;;83.78;44.53;;;;;;;2.55;83.30;100095.45;1678617;84;21486;-60
2023/03/21 04:59:30;;;;;;;84.42;41.05;;;;;;;2.56;83.39;100086.84;1678754;84;21014;-61
2023/03/21 05:01:59;;;;;;;68.30;34.35;;;;;;;2.58;83.36;100090.25;1678422;84;21023;-61
2023/03/21 05:04:29;;;;;;;67.35;32.33;;;;;;;2.60;83.38;100081.98;1678824;84;21030;-60
2023/03/21 05:06:58;;;;;;;76.40;34.10;;;;;;;2.63;83.37;100083.91;1678890;84;20983;-61
2023/03/21 05:09:27;;;;;;;78.02;39.50;;;;;;;2.66;83.35;100087.65;1678794;85;21070;-60
2023/03/21 05:11:58;;;;;;;80.00;40.55;;;;;;;2.69;83.34;100090.05;1679064;84;21082;-60
2023/03/21 05:14:27;;;;;;;62.65;30.37;;;;;;;2.69;83.29;100092.75;1679031;85;21104;-61
2023/03/21 05:16:56;;;;;;;67.72;30.97;;;;;;;2.68;83.35;100095.61;1678932;84;21031;-59
2023/03/21 05:19:34;;;;;;;65.42;29.85;;;;;;;2.69;83.44;100092.75;1679120;85;21074;-60
2023/03/21 05:22:07;;;;;;;69.00;31.40;;;;;;;2.74;83.44;100092.28;1678875;85;21074;-61
2023/03/21 05:24:40;;;;;;;65.85;29.82;;;;;;;2.77;83.40;100095.53;1679213;84;21022;-60
2023/03/21 05:27:12;;;;;;;66.25;29.23;;;;;;;2.83;83.42;100092.20;1679230;85;21046;-62
2023/03/21 05:29:44;;;;;;;67.53;30.27;;;;;;;2.90;83.40;100092.42;1678980;85;21031;-60
2023/03/21 05:32:12;;;;;;;64.22;30.17;;;;;;;2.96;83.34;100097.72;1679031;85;21050;-62
2023/03/21 05:34:42;;;;;;;69.58;29.95;;;;;;;3.03;83.35;100101.50;1679294;85;21030;-61
2023/03/21 05:37:12;;;;;;;74.25;32.42;;;;;;;3.09;83.40;100100.87;1678921;84;21761;-62
2023/03/21 05:39:48;;;;;;;70.52;31.97;;;;;;;3.16;83.35;100100.59;1679029;84;21086;-61
2023/03/21 05:42:22;;;;;;;;;;;;;;;3.21;83.30;100102.31;1681348;85;21062;-61
2023/03/21 05:44:51;;;;;;;77.72;32.98;;;;;;;3.27;83.30;100097.66;1679080;85;20169;-61
2023/03/21 05:47:25;;;;;;;70.97;31.73;;;;;;;3.33;83.38;100102.94;1679369;85;21503;-61
2023/03/21 05:49:54;;;;;;;65.97;30.15;;;;;;;3.41;83.39;100105.20;1681995;85;21026;-61
2023/03/21 05:52:24;;;;;;;68.95;30.30;;;;;;;3.51;83.34;100106.45;1682561;85;21002;-61
2023/03/21 05:54:55;;;;;;;65.92;29.72;;;;;;;3.60;83.36;100107.34;1661421;85;20995;-61
2023/03/21 05:57:27;;;;;;;64.72;29.10;;;;;;;3.68;83.40;100101.97;1682783;84;21034;-61
2023/03/21 06:00:01;;;;;;;61.53;30.15;;;;;;;3.76;83.40;100099.31;1681446;84;21039;-62
2023/03/21 06:02:32;;;;;;;62.98;30.17;;;;;;;3.83;83.33;100097.66;1679604;85;21058;-62
2023/03/21 06:05:03;;;;;;;65.20;29.60;;;;;;;3.91;83.33;100105.85;1678862;85;21111;-61
2023/03/21 06:07:35;;;;;;;69.85;29.80;;;;;;;4.03;83.37;100103.20;1679204;85;21070;-62
2023/03/21 06:10:07;;;;;;;59.55;28.38;;;;;;;4.13;83.26;100104.42;1679297;84;21491;-61
2023/03/21 06:12:36;;;;;;;60.98;29.20;;;;;;;4.24;83.27;100100.56;1678766;84;21134;-60
2023/03/21 06:15:21;;;;;;;61.08;30.32;;;;;;;4.34;83.20;100095.34;1666220;84;21050;-61
2023/03/21 06:17:55;;;;;;;61.30;29.35;;;;;;;4.45;83.14;100086.04;1626231;88;21080;-61
2023/03/21 06:20:24;;;;;;;64.00;29.05;;;;;;;4.55;83.11;100085.89;1626531;86;21525;-60
2023/03/21 06:22:56;;;;;;;58.92;28.02;;;;;;;4.66;82.99;100082.89;1626432;87;21051;-62
2023/03/21 06:25:26;;;;;;;53.15;25.43;;;;;;;4.74;82.83;100089.69;1626617;86;21087;-61
2023/03/21 06:27:55;;;;;;;63.33;27.50;;;;;;;4.83;82.65;100089.18;1626557;88;21228;-62
2023/03/21 06:30:25;;;;;;;65.87;29.42;;;;;;;4.90;82.44;100090.20;1626641;86;21133;-62
2023/03/21 06:33:11;;;;;;;57.27;29.23;;;;;;;4.96;82.28;100086.81;1625544;88;21072;-62
2023/03/21 06:35:40;;;;;;;65.32;30.17;;;;;;;5.03;82.16;100082.40;1626629;86;21487;-62
2023/03/21 06:38:10;;;;;;;61.33;30.02;;;;;;;5.10;81.98;100077.98;1626209;88;21471;-67
2023/03/21 06:40:40;;;;;;;62.17;29.50;;;;;;;5.18;81.72;100080.70;1626590;88;21059;-61
2023/03/21 06:43:10;;;;;;;56.95;28.73;;;;;;;5.26;81.53;100077.16;1665751;85;21070;-60
2023/03/21 06:45:40;;;;;;;60.98;29.75;;;;;;;5.35;81.25;100096.50;1678926;84;21054;-62
2023/03/21 06:48:11;;;;;;;69.03;29.50;;;;;;;5.43;81.08;100088.84;1678710;85;21487;-64
2023/03/21 06:50:50;;;;;;;60.40;28.80;;;;;;;5.52;80.91;100086.45;1678803;84;21001;-63
2023/03/21 06:53:19;;;;;;;63.40;30.68;;;;;;;5.62;80.73;100081.67;1678925;85;21066;-62
2023/03/21 06:55:51;;;;;;;64.07;30.68;;;;;;;5.71;80.50;100082.84;1675785;85;21174;-62
2023/03/21 06:58:21;;;;;;;68.28;30.05;;;;;;;5.80;80.21;100083.66;1678956;85;21074;-63
2023/03/21 07:00:51;;;;;;;61.18;29.35;;;;;;;5.89;79.91;100075.88;1678962;84;21023;-64
2023/03/21 07:03:20;;;;;;;66.65;31.50;;;;;;;5.98;79.64;100082.13;1678775;84;21102;-63
2023/03/21 07:05:49;;;;;;;61.50;29.87;;;;;;;6.09;79.52;100080.38;1678789;85;21522;-61
2023/03/21 07:08:18;;;;;;;63.52;30.25;;;;;;;6.18;79.32;100068.95;1678616;84;21070;-64
2023/03/21 07:10:47;;;;;;;71.97;31.02;;;;;;;6.28;79.26;100076.38;1678887;85;21500;-61
2023/03/21 07:13:17;;;;;;;62.65;29.42;;;;;;;6.40;79.14;100068.66;1678599;84;21521;-62
2023/03/21 07:15:48;;;;;;;69.25;31.48;;;;;;;6.49;78.93;100065.72;1677847;84;21027;-61
2023/03/21 07:18:18;;;;;;;64.35;30.02;;;;;;;6.58;78.61;100063.31;1678577;84;21079;-62
2023/03/21 07:20:49;;;;;;;58.42;28.15;;;;;;;6.66;78.33;100055.59;1678623;84;21027;-64
2023/03/21 07:23:22;;;;;;;68.45;32.15;;;;;;;6.78;78.07;100068.27;1678797;84;21031;-62
2023/03/21 07:25:53;;;;;;;63.48;30.57;;;;;;;6.86;77.78;100058.69;1678693;85;21497;-62
2023/03/21 07:28:23;;;;;;;63.13;32.15;;;;;;;6.93;77.49;100059.65;1678906;84;21038;-61
2023/03/21 07:31:00;;;;;;;62.00;30.92;;;;;;;7.02;77.22;100069.96;1678908;85;21090;-61
2023/03/21 07:33:30;;;;;;;69.35;33.25;;;;;;;7.08;76.91;100062.42;1678877;84;21443;-64
2023/03/21 07:36:00;;;;;;;69.07;31.70;;;;;;;7.17;76.59;100064.91;1678823;85;21019;-62
2023/03/21 07:38:33;;;;;;;62.20;29.27;;;;;;;7.24;76.17;100064.52;1585906;88;21039;-62
2023/03/21 07:41:02;;;;;;;70.15;30.43;;;;;;;7.33;75.70;100063.92;1626513;87;21076;-62
2023/03/21 07:43:34;;;;;;;61.98;30.20;;;;;;;7.42;75.39;100067.41;1626376;86;21196;-62
2023/03/21 07:46:09;;;;;;;70.05;33.83;;;;;;;7.51;75.17;100066.30;1626439;86;21048;-61
2023/03/21 07:48:40;;;;;;;66.35;32.80;;;;;;;7.60;75.01;100059.72;1626406;87;21703;-62
2023/03/21 07:51:11;;;;;;;65.55;30.92;;;;;;;7.68;74.80;100066.45;1626371;86;21043;-61
2023/03/21 07:53:40;;;;;;;70.52;31.80;;;;;;;7.77;74.51;100058.50;1626774;88;21063;-61
2023/03/21 07:56:10;;;;;;;67.82;30.82;;;;;;;7.88;74.18;100058.58;1641118;85;21003;-62
2023/03/21 07:58:42;;;;;;;61.58;30.10;;;;;;;7.98;74.02;100055.05;1678791;84;21031;-64
2023/03/21 08:01:12;;;;;;;58.25;26.48;;;;;;;8.22;73.97;100057.46;1678674;84;21400;-65
2023/03/21 08:03:42;;;;;;;58.80;27.67;;;;;;;8.60;73.66;100061.43;1678641;85;21059;-61
2023/03/21 08:06:11;;;;;;;51.60;26.02;;;;;;;9.11;72.94;100055.34;1678666;85;21038;-63
2023/03/21 08:08:40;;;;;;;56.37;26.80;;;;;;;9.68;71.58;100046.11;1678720;84;21051;-62
2023/03/21 08:11:10;;;;;;;57.38;28.38;;;;;;;10.26;69.89;100043.95;1678783;85;21034;-62
2023/03/21 08:13:39;;;;;;;57.30;27.95;;;;;;;10.77;68.27;100041.59;1687990;85;21057;-61
2023/03/21 08:16:09;;;;;;;60.52;26.65;;;;;;;11.22;66.28;100038.30;1678993;85;21434;-63
2023/03/21 08:18:41;;;;;;;56.77;26.97;;;;;;;11.64;64.54;100032.36;1626674;86;21091;-62
2023/03/21 08:21:12;;;;;;;43.95;24.60;;;;;;;12.10;62.54;100038.84;1550372;92;21471;-63
2023/03/21 08:23:41;;;;;;;45.98;25.90;;;;;;;12.49;60.83;100033.75;1550640;91;21138;-63
2023/03/21 08:26:14;;;;;;;54.58;25.17;;;;;;;12.85;59.36;100028.98;1550308;91;21071;-61
2023/03/21 08:28:43;;;;;;;42.62;23.52;;;;;;;13.18;57.56;100029.65;1517793;94;21132;-62
2023/03/21 08:31:13;;;;;;;51.35;24.27;;;;;;;13.45;56.51;100029.42;1550343;91;21083;-63
2023/03/21 08:33:42;;;;;;;48.42;26.50;;;;;;;13.72;55.61;100028.13;1550226;91;21341;-62
2023/03/21 08:36:11;;;;;;;38.02;23.07;;;;;;;13.98;54.52;100028.91;1550377;91;21580;-63
2023/03/21 08:38:44;;;;;;;44.88;24.77;;;;;;;14.24;53.25;100034.95;1550366;92;21107;-62
2023/03/21 08:41:15;;;;;;;36.53;23.07;;;;;;;14.42;52.62;100025.02;1518022;94;21096;-64
2023/03/21 08:43:45;;;;;;;41.65;23.83;;;;;;;14.57;51.90;100026.32;1584103;90;21131;-65
2023/03/21 08:46:14;;;;;;;40.70;24.75;;;;;;;14.72;51.33;100027.81;1658654;85;21058;-63
2023/03/21 08:48:43;;;;;;;48.58;24.07;;;;;;;14.87;51.07;100016.66;1679237;84;21043;-61
2023/03/21 08:51:13;;;;;;;42.25;24.77;;;;;;;15.05;50.43;100017.70;1688661;85;21333;-62
2023/03/21 08:53:42;;;;;;;55.25;27.48;;;;;;;15.14;49.54;100017.66;1678984;84;21034;-64
2023/03/21 08:56:13;;;;;;;47.27;25.88;;;;;;;15.09;49.07;100020.28;1688836;84;21058;-62
2023/03/21 08:58:46;;;;;;;43.38;25.60;;;;;;;15.04;49.01;100013.25;1679213;84;21102;-64
2023/03/21 09:01:16;;;;;;;47.83;25.82;;;;;;;14.94;48.93;100010.20;1688883;83;21058;-60
2023/03/21 09:03:45;;;;;;;44.27;23.57;;;;;;;14.84;49.54;100017.13;1679085;85;20990;-63
2023/03/21 09:06:16;;;;;;;49.63;22.17;;;;;;;14.84;49.68;100017.13;1688575;84;21038;-62
2023/03/21 09:08:45;;;;;;;48.28;25.85;;;;;;;14.87;49.42;100019.42;1679201;84;21086;-63
2023/03/21 09:11:13;;;;;;;39.38;23.98;;;;;;;14.88;49.13;100011.44;1688520;85;21070;-64
2023/03/21 09:13:43;;;;;;;37.73;23.57;;;;;;;14.84;48.92;100017.67;1683024;83;21073;-63
2023/03/21 09:16:12;;;;;;;45.03;24.00;;;;;;;14.76;49.18;100016.08;1714111;82;21078;-63
2023/03/21 09:18:44;;;;;;;40.63;23.32;;;;;;;14.70;49.20;100025.29;1715892;83;21115;-63
2023/03/21 09:21:14;;;;;;;40.45;22.52;;;;;;;14.61;48.89;100024.47;1716633;82;21109;-64
2023/03/21 09:23:47;;;;;;;38.53;21.57;;;;;;;14.50;49.32;100035.75;1714237;82;21081;-64
2023/03/21 09:26:16;;;;;;;38.23;20.92;;;;;;;14.42;49.60;100025.89;1714322;82;21006;-63
2023/03/21 09:28:50;;;;;;;40.70;23.07;;;;;;;14.37;49.96;100022.95;1709073;82;21096;-65
2023/03/21 09:31:28;;;;;;;37.13;21.15;;;;;;;14.30;49.56;100023.55;1707109;84;20990;-66
2023/03/21 09:34:02;;;;;;;39.33;20.82;;;;;;;14.25;49.56;100025.61;1714364;82;21450;-65
2023/03/21 09:36:34;;;;;;;35.85;21.57;;;;;;;14.17;49.58;100023.70;1714522;82;21006;-65
2023/03/21 09:39:08;;;;;;;39.15;21.37;;;;;;;14.08;49.66;100016.83;1716163;82;21064;-66
2023/03/21 09:42:04;;;;;;;53.60;23.52;;;;;;;13.99;49.89;100012.16;1715524;82;21061;-64
2023/03/21 09:44:44;;;;;;;36.58;20.60;;;;;;;13.93;50.19;100015.83;1716611;82;21075;-65
2023/03/21 09:47:31;;;;;;;36.20;21.55;;;;;;;13.90;50.38;100014.91;1716391;82;21049;-65
2023/03/21 09:50:15;;;;;;;37.80;19.57;;;;;;;13.88;50.28;100015.14;1722192;82;21294;-66
2023/03/21 09:53:00;;;;;;;31.52;17.98;;;;;;;13.81;50.29;100009.40;1716560;82;21474;-64
2023/03/21 09:55:36;;;;;;;43.98;22.20;;;;;;;13.77;50.13;100005.41;1716310;82;21521;-65
2023/03/21 09:58:45;;;;;;;35.88;18.98;;;;;;;13.73;50.25;100009.70;1705301;82;21042;-65
2023/03/21 10:01:27;;;;;;;42.08;22.30;;;;;;;13.73;50.30;100014.67;1716074;83;21082;-64
2023/03/21 10:03:59;;;;;;;37.45;19.75;;;;;;;13.76;50.30;100003.20;1716372;82;21046;-66
2023/03/21 10:06:34;;;;;;;38.13;19.52;;;;;;;13.82;49.95;100007.80;1703823;82;21002;-64
2023/03/21 10:09:22;;;;;;;30.57;18.65;;;;;;;13.86;49.66;100006.80;1680696;85;21005;-65
2023/03/21 10:12:29;;;;;;;35.23;19.52;;;;;;;13.89;49.64;100002.21;1685122;83;21037;-66
2023/03/21 10:15:01;;;;;;;33.23;18.30;;;;;;;13.90;50.03;99993.72;1699097;84;21070;-66
2023/03/21 10:17:42;;;;;;;33.53;19.42;;;;;;;13.91;49.77;100000.91;1698839;84;21508;-65
2023/03/21 10:20:30;;;;;;;31.70;18.00;;;;;;;13.91;49.44;99998.69;1699320;84;21058;-64
2023/03/21 10:23:06;;;;;;;;;;;;;;;13.89;49.46;100000.30;1717800;83;21058;-64
2023/03/21 10:25:50;;;;;;;29.82;17.25;;;;;;;13.91;49.64;99995.94;1697860;83;20199;-65
2023/03/21 10:28:23;;;;;;;32.70;18.15;;;;;;;13.97;49.98;99993.64;1719079;83;21106;-64
2023/03/21 10:30:58;;;;;;;30.52;17.92;;;;;;;14.01;49.21;99992.11;1721724;83;21022;-64
2023/03/21 10:33:41;;;;;;;28.70;17.37;;;;;;;14.01;48.73;99984.38;1720710;83;21062;-65
2023/03/21 10:36:19;;;;;;;34.27;19.62;;;;;;;14.00;49.03;99984.92;1721550;83;20998;-64
2023/03/21 10:39:11;;;;;;;37.65;18.62;;;;;;;13.98;48.97;99989.81;1721586;83;21113;-66
2023/03/21 10:41:48;;;;;;;35.65;18.50;;;;;;;14.01;48.57;99985.22;1705357;83;21105;-65
2023/03/21 10:44:39;;;;;;;35.90;18.07;;;;;;;14.05;48.41;99977.34;1717338;82;21018;-64
2023/03/21 10:47:10;;;;;;;32.17;19.10;;;;;;;14.08;48.73;99983.23;1696162;83;21109;-63
2023/03/21 10:49:41;;;;;;;30.35;18.48;;;;;;;14.11;48.60;99984.14;1715959;83;21043;-66
2023/03/21 10:52:14;;;;;;;31.37;18.32;;;;;;;14.14;48.35;99978.70;1713426;83;21078;-64
2023/03/21 10:54:50;;;;;;;30.20;18.57;;;;;;;14.13;48.39;99972.36;1697191;83;21026;-64
2023/03/21 10:57:41;;;;;;;29.20;18.80;;;;;;;14.16;48.30;99969.14;1714842;83;21100;-64
2023/03/21 11:00:25;;;;;;;33.28;19.23;;;;;;;14.20;48.32;99968.98;1715926;83;21013;-65
2023/03/21 11:03:15;;;;;;;;;;;;;;;;;;;;;
2023/03/21 11:05:42;;;;;;;30.43;19.40;;;;;;;14.26;48.36;99970.80;1693861;82;21016;-64
2023/03/21 11:08:17;;;;;;;37.60;20.25;;;;;;;14.28;48.31;99971.41;1715731;83;21022;-63
2023/03/21 11:10:56;;;;;;;45.45;23.15;;;;;;;14.27;48.61;99967.52;1715888;83;21462;-65
2023/03/21 11:13:34;;;;;;;34.85;19.15;;;;;;;14.29;48.72;99971.72;1716002;83;21018;-64
2023/03/21 11:16:20;;;;;;;39.30;19.75;;;;;;;14.29;48.82;99959.85;1710123;82;21484;-64
2023/03/21 11:18:50;;;;;;;34.10;19.35;;;;;;;14.33;48.86;99962.48;1715897;83;21414;-64
2023/03/21 11:21:27;;;;;;;32.38;18.65;;;;;;;14.40;48.72;99957.72;1715934;82;21022;-62
2023/03/21 11:23:58;;;;;;;42.17;24.10;;;;;;;14.40;48.71;99955.50;1716162;83;21050;-63
2023/03/21 11:26:35;;;;;;;32.35;19.32;;;;;;;14.39;48.68;99960.17;1715955;83;20982;-64
2023/03/21 11:29:25;;;;;;;35.08;19.27;;;;;;;14.42;48.18;99967.12;1716113;83;21540;-63
2023/03/21 11:32:10;;;;;;;39.75;20.30;;;;;;;14.45;47.38;99961.19;1711752;83;21047;-64
2023/03/21 11:35:03;;;;;;;34.88;20.05;;;;;;;14.48;47.68;99960.72;1716120;82;21030;-64
2023/03/21 11:37:40;;;;;;;35.40;20.17;;;;;;;14.49;47.86;99958.26;1716168;83;21066;-64
2023/03/21 11:40:26;;;;;;;35.08;20.72;;;;;;;14.48;48.04;99958.80;1675023;83;21110;-64
2023/03/21 11:43:02;;;;;;;32.00;19.85;;;;;;;14.54;48.00;99965.29;1718025;82;21030;-64
2023/03/21 11:45:34;;;;;;;;;;;;;;;14.56;47.55;99959.00;1730910;83;21031;-63
2023/03/21 11:48:13;;;;;;;29.15;17.17;;;;;;;14.60;47.30;99958.84;1728575;82;20225;-64
2023/03/21 11:50:47;;;;;;;30.68;17.73;;;;;;;14.56;47.21;99959.84;1728549;83;21152;-65
2023/03/21 11:53:39;;;;;;;36.93;19.35;;;;;;;14.54;46.77;99955.64;1728448;82;21019;-64
2023/03/21 11:56:35;;;;;;;32.63;20.23;;;;;;;14.49;47.16;99954.13;1714661;82;21138;-64